PWSweather.com
Personal Weather Stations
Station Observations
SEAWX98122
Squire Park, Seattle, WA 98122

Squire ParkSeattle, WA 98122

Lat: 47.61174774, Lon: -122.31365204

Elevation: 324

Station Type: Davis Vantage Pro 2

https://www.seattleweather.org

Latest ConditionsUpdated 8:45:00 AM PDT Saturday, Sep 22, 2018
Currently Today's Max Today's Min Today's Average
Temperature 60.4°F15.8°C 60.4°F15.8°C 57.1°F13.9°C 59.2°F15.1°C
Dew Point 54.9°F12.7°C 56.6°F13.7°C 53.7°F12.1°C 54.9°F12.7°C
Winds 4.6 mph S7.4 kmh S 9.2 mph -14.8 kmh - - 3.9 mph 6.3 kmh
Wind Gusts 4.6 mph7.4 kmh 17.3 mph27.8 kmh - -
Humidity 82% 92% 80% 86%
Pressure 29.87 in1011.5 mb 29.87 in1011.5 mb 29.84 in1010.5 mb -
Precipitation - 0.01 in0.3 mm - -
Hour Temp Dew Point Humidity Winds Wind Gusts Pressure Precip Precip Rate Daily Precip Total
08:45 AM 60.4°F15.8°C 54.9°F12.7°C 82% 4.6 mph S7.4 kmh S 4.6 mph7.4 kmh 29.87 in1011.5 mb - 0.00 in0.0 mm 0.01 in0.3 mm
08:40 AM 60.1°F15.6°C 54.9°F12.7°C 83% 6.9 mph S11.1 kmh S 11.5 mph18.5 kmh 29.87 in1011.5 mb - 0.00 in0.0 mm 0.01 in0.3 mm
08:35 AM 59.9°F15.5°C 54.7°F12.6°C 83% 4.6 mph S7.4 kmh S 8.1 mph13.0 kmh 29.87 in1011.5 mb - 0.00 in0.0 mm 0.01 in0.3 mm
08:30 AM 59.7°F15.4°C 54.9°F12.7°C 84% 5.8 mph S9.3 kmh S 12.7 mph20.4 kmh 29.87 in1011.5 mb - 0.00 in0.0 mm 0.01 in0.3 mm
08:25 AM 59.5°F15.3°C 55.0°F12.8°C 85% 3.5 mph S5.6 kmh S 10.4 mph16.7 kmh 29.86 in1011.2 mb - 0.00 in0.0 mm 0.01 in0.3 mm
08:20 AM 59.0°F15.0°C 54.4°F12.4°C 85% 4.6 mph S7.4 kmh S 4.6 mph7.4 kmh 29.86 in1011.2 mb - 0.00 in0.0 mm 0.01 in0.3 mm
08:15 AM 58.6°F14.8°C 54.4°F12.4°C 86% 4.6 mph SW7.4 kmh SW 10.4 mph16.7 kmh 29.86 in1011.2 mb - 0.00 in0.0 mm 0.01 in0.3 mm
08:10 AM 58.4°F14.7°C 54.5°F12.5°C 87% 2.3 mph SSW3.7 kmh SSW 6.9 mph11.1 kmh 29.86 in1011.2 mb - 0.00 in0.0 mm 0.01 in0.3 mm
08:00 AM 58.0°F14.4°C 54.2°F12.3°C 87% 2.3 mph SSE3.7 kmh SSE 3.5 mph5.6 kmh 29.86 in1011.2 mb - 0.00 in0.0 mm 0.01 in0.3 mm
07:55 AM 58.0°F14.4°C 54.2°F12.3°C 87% 5.8 mph SSW9.3 kmh SSW 10.4 mph16.7 kmh 29.86 in1011.2 mb - 0.00 in0.0 mm 0.01 in0.3 mm
07:50 AM 58.1°F14.5°C 54.2°F12.3°C 87% 4.6 mph S7.4 kmh S 11.5 mph18.5 kmh 29.86 in1011.2 mb - 0.00 in0.0 mm 0.01 in0.3 mm
07:45 AM 58.1°F14.5°C 54.2°F12.3°C 87% 3.5 mph S5.6 kmh S 13.8 mph22.2 kmh 29.86 in1011.2 mb - 0.00 in0.0 mm 0.01 in0.3 mm
07:40 AM 58.1°F14.5°C 54.2°F12.3°C 87% 4.6 mph S7.4 kmh S 9.2 mph14.8 kmh 29.86 in1011.2 mb - 0.00 in0.0 mm 0.01 in0.3 mm
07:35 AM 57.8°F14.3°C 54.3°F12.4°C 88% 8.1 mph S13.0 kmh S 17.3 mph27.8 kmh 29.86 in1011.2 mb - 0.00 in0.0 mm 0.01 in0.3 mm
07:30 AM 57.6°F14.2°C 54.1°F12.3°C 88% 3.5 mph SSW5.6 kmh SSW 4.6 mph7.4 kmh 29.86 in1011.2 mb - 0.00 in0.0 mm 0.01 in0.3 mm
07:25 AM 57.4°F14.1°C 54.2°F12.3°C 89% 4.6 mph S7.4 kmh S 10.4 mph16.7 kmh 29.86 in1011.2 mb - 0.00 in0.0 mm 0.01 in0.3 mm
07:20 AM 57.3°F14.1°C 54.1°F12.3°C 89% 2.3 mph S3.7 kmh S 4.6 mph7.4 kmh 29.86 in1011.2 mb - 0.00 in0.0 mm 0.01 in0.3 mm
07:15 AM 57.2°F14.0°C 54.3°F12.4°C 90% 4.6 mph S7.4 kmh S 4.6 mph7.4 kmh 29.86 in1011.2 mb - 0.01 in0.3 mm 0.01 in0.3 mm
07:10 AM 57.1°F13.9°C 54.2°F12.3°C 90% 5.8 mph S9.3 kmh S 11.5 mph18.5 kmh 29.86 in1011.2 mb - 0.01 in0.3 mm 0.01 in0.3 mm
07:00 AM 57.1°F13.9°C 54.2°F12.3°C 90% 3.5 mph S5.6 kmh S 6.9 mph11.1 kmh 29.86 in1011.2 mb - 0.01 in0.3 mm 0.01 in0.3 mm
06:55 AM 57.1°F13.9°C 54.2°F12.3°C 90% 3.5 mph S5.6 kmh S 6.9 mph11.1 kmh 29.86 in1011.2 mb - 0.01 in0.3 mm 0.01 in0.3 mm
06:50 AM 57.1°F13.9°C 54.2°F12.3°C 90% 3.5 mph S5.6 kmh S 8.1 mph13.0 kmh 29.86 in1011.2 mb - 0.01 in0.3 mm 0.01 in0.3 mm
06:45 AM 57.1°F13.9°C 54.2°F12.3°C 90% Calm Calm -- 29.86 in1011.2 mb - 0.01 in0.3 mm 0.01 in0.3 mm
06:40 AM 57.1°F13.9°C 54.2°F12.3°C 90% 2.3 mph SSW3.7 kmh SSW 6.9 mph11.1 kmh 29.86 in1011.2 mb - 0.01 in0.3 mm 0.01 in0.3 mm
06:35 AM 57.2°F14.0°C 54.3°F12.4°C 90% 4.6 mph S7.4 kmh S 8.1 mph13.0 kmh 29.86 in1011.2 mb - 0.01 in0.3 mm 0.01 in0.3 mm
06:30 AM 57.4°F14.1°C 54.2°F12.3°C 89% 6.9 mph S11.1 kmh S 10.4 mph16.7 kmh 29.86 in1011.2 mb - 0.01 in0.3 mm 0.01 in0.3 mm
06:25 AM 57.6°F14.2°C 54.4°F12.4°C 89% 4.6 mph SSW7.4 kmh SSW 6.9 mph11.1 kmh 29.86 in1011.2 mb - 0.01 in0.3 mm 0.01 in0.3 mm
06:20 AM 58.1°F14.5°C 54.2°F12.3°C 87% 3.5 mph SSE5.6 kmh SSE 5.8 mph9.3 kmh 29.86 in1011.2 mb - 0.01 in0.3 mm 0.01 in0.3 mm
06:15 AM 58.7°F14.8°C 54.2°F12.3°C 85% 6.9 mph S11.1 kmh S 11.5 mph18.5 kmh 29.86 in1011.2 mb - 0.00 in0.0 mm 0.08 in2.0 mm
06:10 AM 59.2°F15.1°C 54.0°F12.2°C 83% 5.8 mph SSW9.3 kmh SSW 13.8 mph22.2 kmh 29.85 in1010.8 mb - 0.00 in0.0 mm 0.08 in2.0 mm
06:00 AM 59.3°F15.2°C 53.8°F12.1°C 82% 6.9 mph SSW11.1 kmh SSW 11.5 mph18.5 kmh 29.86 in1011.2 mb - 0.00 in0.0 mm 0.08 in2.0 mm
05:55 AM 59.3°F15.2°C 53.8°F12.1°C 82% 3.5 mph S5.6 kmh S 6.9 mph11.1 kmh 29.85 in1010.8 mb - 0.00 in0.0 mm 0.08 in2.0 mm
05:50 AM 59.3°F15.2°C 53.8°F12.1°C 82% 6.9 mph S11.1 kmh S 11.5 mph18.5 kmh 29.85 in1010.8 mb - 0.00 in0.0 mm 0.08 in2.0 mm
05:45 AM 59.4°F15.2°C 53.9°F12.2°C 82% 6.9 mph S11.1 kmh S 10.4 mph16.7 kmh 29.84 in1010.5 mb - 0.00 in0.0 mm 0.08 in2.0 mm
05:40 AM 59.4°F15.2°C 53.9°F12.2°C 82% 6.9 mph S11.1 kmh S 11.5 mph18.5 kmh 29.84 in1010.5 mb - 0.00 in0.0 mm 0.08 in2.0 mm
05:35 AM 59.4°F15.2°C 53.9°F12.2°C 82% 8.1 mph S13.0 kmh S 11.5 mph18.5 kmh 29.84 in1010.5 mb - 0.00 in0.0 mm 0.08 in2.0 mm
05:30 AM 59.2°F15.1°C 53.7°F12.1°C 82% 9.2 mph S14.8 kmh S 15.0 mph24.1 kmh 29.84 in1010.5 mb - 0.00 in0.0 mm 0.08 in2.0 mm
05:25 AM 59.1°F15.1°C 53.9°F12.2°C 83% 4.6 mph SSW7.4 kmh SSW 10.4 mph16.7 kmh 29.84 in1010.5 mb - 0.00 in0.0 mm 0.08 in2.0 mm
05:20 AM 59.2°F15.1°C 54.0°F12.2°C 83% 4.6 mph S7.4 kmh S 6.9 mph11.1 kmh 29.84 in1010.5 mb - 0.00 in0.0 mm 0.08 in2.0 mm
05:15 AM 59.4°F15.2°C 53.9°F12.2°C 82% 6.9 mph S11.1 kmh S 12.7 mph20.4 kmh 29.84 in1010.5 mb - 0.00 in0.0 mm 0.08 in2.0 mm
05:10 AM 59.4°F15.2°C 53.9°F12.2°C 82% 4.6 mph SSW7.4 kmh SSW 17.3 mph27.8 kmh 29.85 in1010.8 mb - 0.00 in0.0 mm 0.08 in2.0 mm
05:00 AM 59.6°F15.3°C 54.1°F12.3°C 82% 4.6 mph S7.4 kmh S 11.5 mph18.5 kmh 29.84 in1010.5 mb - 0.00 in0.0 mm 0.08 in2.0 mm
04:55 AM 59.8°F15.4°C 54.0°F12.2°C 81% 6.9 mph SSW11.1 kmh SSW 12.7 mph20.4 kmh 29.85 in1010.8 mb - 0.00 in0.0 mm 0.08 in2.0 mm
04:50 AM 59.9°F15.5°C 54.1°F12.3°C 81% 3.5 mph S5.6 kmh S 9.2 mph14.8 kmh 29.85 in1010.8 mb - 0.00 in0.0 mm 0.08 in2.0 mm
04:45 AM 60.2°F15.7°C 54.0°F12.2°C 80% 8.1 mph S13.0 kmh S 11.5 mph18.5 kmh 29.85 in1010.8 mb - 0.00 in0.0 mm 0.08 in2.0 mm
04:40 AM 60.4°F15.8°C 54.2°F12.3°C 80% 8.1 mph S13.0 kmh S 13.8 mph22.2 kmh 29.85 in1010.8 mb - 0.00 in0.0 mm 0.08 in2.0 mm
04:35 AM 60.4°F15.8°C 54.2°F12.3°C 80% 6.9 mph S11.1 kmh S 16.1 mph25.9 kmh 29.85 in1010.8 mb - 0.00 in0.0 mm 0.08 in2.0 mm
04:30 AM 60.2°F15.7°C 54.4°F12.4°C 81% 2.3 mph S3.7 kmh S 5.8 mph9.3 kmh 29.85 in1010.8 mb - 0.00 in0.0 mm 0.08 in2.0 mm
04:25 AM 60.2°F15.7°C 54.7°F12.6°C 82% 3.5 mph SSE5.6 kmh SSE 10.4 mph16.7 kmh 29.84 in1010.5 mb - 0.00 in0.0 mm 0.08 in2.0 mm
04:20 AM 60.1°F15.6°C 54.6°F12.6°C 82% 4.6 mph S7.4 kmh S 4.6 mph7.4 kmh 29.85 in1010.8 mb - 0.00 in0.0 mm 0.08 in2.0 mm
04:15 AM 60.1°F15.6°C 54.6°F12.6°C 82% 1.2 mph SE1.9 kmh SE 4.6 mph7.4 kmh 29.85 in1010.8 mb - 0.00 in0.0 mm 0.08 in2.0 mm
04:10 AM 60.2°F15.7°C 54.7°F12.6°C 82% 3.5 mph S5.6 kmh S 5.8 mph9.3 kmh 29.85 in1010.8 mb - 0.00 in0.0 mm 0.08 in2.0 mm
04:00 AM 60.2°F15.7°C 54.4°F12.4°C 81% 2.3 mph SE3.7 kmh SE 5.8 mph9.3 kmh 29.85 in1010.8 mb - 0.00 in0.0 mm 0.08 in2.0 mm
03:55 AM 60.2°F15.7°C 54.4°F12.4°C 81% 3.5 mph SE5.6 kmh SE 4.6 mph7.4 kmh 29.85 in1010.8 mb - 0.00 in0.0 mm 0.08 in2.0 mm
03:50 AM 60.4°F15.8°C 54.5°F12.5°C 81% 1.2 mph SSE1.9 kmh SSE -- 29.85 in1010.8 mb - 0.00 in0.0 mm 0.08 in2.0 mm
03:45 AM 60.4°F15.8°C 54.5°F12.5°C 81% 5.8 mph SSE9.3 kmh SSE 10.4 mph16.7 kmh 29.85 in1010.8 mb - 0.00 in0.0 mm 0.08 in2.0 mm
03:40 AM 60.4°F15.8°C 54.5°F12.5°C 81% 4.6 mph S7.4 kmh S 8.1 mph13.0 kmh 29.85 in1010.8 mb - 0.00 in0.0 mm 0.08 in2.0 mm
03:35 AM 60.4°F15.8°C 54.9°F12.7°C 82% 1.2 mph S1.9 kmh S 3.5 mph5.6 kmh 29.85 in1010.8 mb - 0.00 in0.0 mm 0.08 in2.0 mm
03:30 AM 60.3°F15.7°C 54.8°F12.7°C 82% 3.5 mph SSW5.6 kmh SSW 4.6 mph7.4 kmh 29.85 in1010.8 mb - 0.00 in0.0 mm 0.08 in2.0 mm
03:25 AM 60.2°F15.7°C 55.0°F12.8°C 83% 5.8 mph S9.3 kmh S 10.4 mph16.7 kmh 29.86 in1011.2 mb - 0.00 in0.0 mm 0.08 in2.0 mm
03:20 AM 60.2°F15.7°C 55.0°F12.8°C 83% 3.5 mph S5.6 kmh S 8.1 mph13.0 kmh 29.86 in1011.2 mb - 0.00 in0.0 mm 0.08 in2.0 mm
03:15 AM 60.2°F15.7°C 55.0°F12.8°C 83% 3.5 mph S5.6 kmh S 4.6 mph7.4 kmh 29.86 in1011.2 mb - 0.00 in0.0 mm 0.08 in2.0 mm
03:10 AM 59.9°F15.5°C 55.1°F12.8°C 84% 8.1 mph SSE13.0 kmh SSE 11.5 mph18.5 kmh 29.86 in1011.2 mb - 0.00 in0.0 mm 0.08 in2.0 mm
03:00 AM 59.9°F15.5°C 55.4°F13.0°C 85% 2.3 mph SSE3.7 kmh SSE 5.8 mph9.3 kmh 29.86 in1011.2 mb - 0.00 in0.0 mm 0.08 in2.0 mm
02:55 AM 59.8°F15.4°C 55.6°F13.1°C 86% 2.3 mph S3.7 kmh S 8.1 mph13.0 kmh 29.86 in1011.2 mb - 0.00 in0.0 mm 0.08 in2.0 mm
02:50 AM 59.8°F15.4°C 55.6°F13.1°C 86% Calm Calm -- 29.86 in1011.2 mb - 0.00 in0.0 mm 0.08 in2.0 mm
02:45 AM 59.7°F15.4°C 55.5°F13.1°C 86% 3.5 mph S5.6 kmh S 10.4 mph16.7 kmh 29.86 in1011.2 mb - 0.00 in0.0 mm 0.08 in2.0 mm
02:40 AM 59.8°F15.4°C 55.6°F13.1°C 86% 1.2 mph S1.9 kmh S 1.2 mph1.9 kmh 29.86 in1011.2 mb - 0.00 in0.0 mm 0.08 in2.0 mm
02:35 AM 59.9°F15.5°C 55.7°F13.2°C 86% 2.3 mph SSE3.7 kmh SSE 4.6 mph7.4 kmh 29.86 in1011.2 mb - 0.00 in0.0 mm 0.08 in2.0 mm
02:30 AM 60.0°F15.6°C 55.8°F13.2°C 86% 2.3 mph S3.7 kmh S 5.8 mph9.3 kmh 29.86 in1011.2 mb - 0.00 in0.0 mm 0.08 in2.0 mm
02:25 AM 60.0°F15.6°C 55.8°F13.2°C 86% 1.2 mph SSW1.9 kmh SSW 2.3 mph3.7 kmh 29.86 in1011.2 mb - 0.00 in0.0 mm 0.08 in2.0 mm
02:20 AM 59.9°F15.5°C 55.7°F13.2°C 86% 3.5 mph S5.6 kmh S 3.5 mph5.6 kmh 29.86 in1011.2 mb - 0.00 in0.0 mm 0.08 in2.0 mm
02:15 AM 59.7°F15.4°C 55.8°F13.2°C 87% 8.1 mph S13.0 kmh S 11.5 mph18.5 kmh 29.86 in1011.2 mb - 0.00 in0.0 mm 0.08 in2.0 mm
02:10 AM 59.8°F15.4°C 56.2°F13.4°C 88% 1.2 mph S1.9 kmh S 2.3 mph3.7 kmh 29.86 in1011.2 mb - 0.00 in0.0 mm 0.08 in2.0 mm
02:00 AM 59.8°F15.4°C 56.2°F13.4°C 88% 4.6 mph SE7.4 kmh SE 9.2 mph14.8 kmh 29.86 in1011.2 mb - 0.00 in0.0 mm 0.08 in2.0 mm
01:55 AM 59.8°F15.4°C 56.2°F13.4°C 88% 2.3 mph S3.7 kmh S 6.9 mph11.1 kmh 29.86 in1011.2 mb - 0.00 in0.0 mm 0.08 in2.0 mm
01:50 AM 59.7°F15.4°C 56.5°F13.6°C 89% 2.3 mph ESE3.7 kmh ESE 5.8 mph9.3 kmh 29.87 in1011.5 mb - 0.00 in0.0 mm 0.08 in2.0 mm
01:45 AM 59.7°F15.4°C 56.1°F13.4°C 88% 1.2 mph SE1.9 kmh SE 2.3 mph3.7 kmh 29.87 in1011.5 mb - 0.00 in0.0 mm 0.08 in2.0 mm
01:40 AM 59.6°F15.3°C 56.0°F13.3°C 88% 2.3 mph S3.7 kmh S 6.9 mph11.1 kmh 29.86 in1011.2 mb - 0.00 in0.0 mm 0.08 in2.0 mm
01:35 AM 59.5°F15.3°C 55.9°F13.3°C 88% 1.2 mph SSE1.9 kmh SSE 4.6 mph7.4 kmh 29.86 in1011.2 mb - 0.00 in0.0 mm 0.08 in2.0 mm
01:30 AM 59.5°F15.3°C 55.9°F13.3°C 88% 1.2 mph S1.9 kmh S 3.5 mph5.6 kmh 29.86 in1011.2 mb - 0.00 in0.0 mm 0.08 in2.0 mm
01:25 AM 59.3°F15.2°C 56.1°F13.4°C 89% 5.8 mph S9.3 kmh S 8.1 mph13.0 kmh 29.86 in1011.2 mb - 0.00 in0.0 mm 0.08 in2.0 mm
01:20 AM 59.3°F15.2°C 56.0°F13.3°C 89% 2.3 mph SSE3.7 kmh SSE 3.5 mph5.6 kmh 29.86 in1011.2 mb - 0.00 in0.0 mm 0.08 in2.0 mm
01:15 AM 59.2°F15.1°C 55.9°F13.3°C 89% 2.3 mph SSE3.7 kmh SSE 9.2 mph14.8 kmh 29.86 in1011.2 mb - 0.00 in0.0 mm 0.08 in2.0 mm
01:10 AM 59.1°F15.1°C 56.2°F13.4°C 90% 2.3 mph S3.7 kmh S 8.1 mph13.0 kmh 29.86 in1011.2 mb - 0.00 in0.0 mm 0.08 in2.0 mm
01:00 AM 59.3°F15.2°C 56.4°F13.6°C 90% 3.5 mph SE5.6 kmh SE 6.9 mph11.1 kmh 29.86 in1011.2 mb - 0.00 in0.0 mm 0.08 in2.0 mm
12:55 AM 59.3°F15.2°C 56.6°F13.7°C 91% 1.2 mph SE1.9 kmh SE 5.8 mph9.3 kmh 29.86 in1011.2 mb - 0.00 in0.0 mm 0.08 in2.0 mm
12:50 AM 59.2°F15.1°C 56.6°F13.7°C 91% 1.2 mph SSE1.9 kmh SSE 5.8 mph9.3 kmh 29.86 in1011.2 mb - 0.00 in0.0 mm 0.08 in2.0 mm
12:45 AM 59.1°F15.1°C 56.5°F13.6°C 91% 1.2 mph SE1.9 kmh SE 4.6 mph7.4 kmh 29.86 in1011.2 mb - 0.00 in0.0 mm 0.08 in2.0 mm
12:40 AM 59.1°F15.1°C 56.5°F13.6°C 91% 1.2 mph S1.9 kmh S 2.3 mph3.7 kmh 29.86 in1011.2 mb - 0.00 in0.0 mm 0.08 in2.0 mm
12:35 AM 59.0°F15.0°C 56.4°F13.6°C 91% 1.2 mph SSE1.9 kmh SSE 3.5 mph5.6 kmh 29.86 in1011.2 mb - 0.01 in0.3 mm 0.08 in2.0 mm
12:30 AM 58.9°F14.9°C 56.3°F13.5°C 91% 1.2 mph S1.9 kmh S 2.3 mph3.7 kmh 29.85 in1010.8 mb - 0.01 in0.3 mm 0.07 in1.8 mm
12:25 AM 58.9°F14.9°C 56.3°F13.5°C 91% 2.3 mph SSE3.7 kmh SSE 5.8 mph9.3 kmh 29.85 in1010.8 mb - 0.01 in0.3 mm 0.06 in1.5 mm
12:20 AM 58.8°F14.9°C 56.2°F13.4°C 91% 2.3 mph SSE3.7 kmh SSE 3.5 mph5.6 kmh 29.86 in1011.2 mb - 0.01 in0.3 mm 0.05 in1.3 mm
12:15 AM 58.8°F14.9°C 56.5°F13.6°C 92% 2.3 mph SSE3.7 kmh SSE 5.8 mph9.3 kmh 29.86 in1011.2 mb - 0.01 in0.3 mm 0.04 in1.0 mm
12:10 AM 58.9°F14.9°C 56.6°F13.7°C 92% 1.2 mph SSE1.9 kmh SSE 3.5 mph5.6 kmh 29.86 in1011.2 mb - 0.01 in0.3 mm 0.03 in0.8 mm
12:00 AM 58.7°F14.8°C 56.1°F13.4°C 91% 2.3 mph S3.7 kmh S 3.5 mph5.6 kmh 29.86 in1011.2 mb - 0.02 in0.5 mm 0.02 in0.5 mm